sensor_id;sensor_type;location;lat;lon;timestamp;P1;durP1;ratioP1;P2;durP2;ratioP2
21352;SDS011;10834;52.268;6.770;2023-05-07T00:02:34;16.83;;;15.10;;
21352;SDS011;10834;52.268;6.770;2023-05-07T00:05:20;21.07;;;16.80;;
21352;SDS011;10834;52.268;6.770;2023-05-07T00:08:06;19.25;;;16.88;;
21352;SDS011;10834;52.268;6.770;2023-05-07T00:10:52;19.08;;;15.80;;
21352;SDS011;10834;52.268;6.770;2023-05-07T00:13:38;18.15;;;16.13;;
21352;SDS011;10834;52.268;6.770;2023-05-07T00:16:25;17.07;;;15.20;;
21352;SDS011;10834;52.268;6.770;2023-05-07T00:19:11;17.83;;;15.93;;
21352;SDS011;10834;52.268;6.770;2023-05-07T00:21:57;17.23;;;15.53;;
21352;SDS011;10834;52.268;6.770;2023-05-07T00:24:43;17.30;;;15.47;;
21352;SDS011;10834;52.268;6.770;2023-05-07T00:27:29;16.80;;;15.10;;
21352;SDS011;10834;52.268;6.770;2023-05-07T00:30:15;18.80;;;15.53;;
21352;SDS011;10834;52.268;6.770;2023-05-07T00:33:01;18.63;;;16.77;;
21352;SDS011;10834;52.268;6.770;2023-05-07T00:35:48;16.97;;;15.23;;
21352;SDS011;10834;52.268;6.770;2023-05-07T00:38:34;17.27;;;15.63;;
21352;SDS011;10834;52.268;6.770;2023-05-07T00:41:20;17.60;;;15.53;;
21352;SDS011;10834;52.268;6.770;2023-05-07T00:44:06;18.50;;;15.23;;
21352;SDS011;10834;52.268;6.770;2023-05-07T00:46:52;17.70;;;15.77;;
21352;SDS011;10834;52.268;6.770;2023-05-07T00:49:43;18.37;;;16.47;;
21352;SDS011;10834;52.268;6.770;2023-05-07T00:52:29;20.92;;;16.98;;
21352;SDS011;10834;52.268;6.770;2023-05-07T00:55:15;20.67;;;18.47;;
21352;SDS011;10834;52.268;6.770;2023-05-07T00:58:02;19.83;;;17.73;;
21352;SDS011;10834;52.268;6.770;2023-05-07T01:00:48;19.97;;;17.83;;
21352;SDS011;10834;52.268;6.770;2023-05-07T01:03:35;20.97;;;18.70;;
21352;SDS011;10834;52.268;6.770;2023-05-07T01:06:21;19.53;;;17.53;;
21352;SDS011;10834;52.268;6.770;2023-05-07T01:09:10;20.87;;;18.67;;
21352;SDS011;10834;52.268;6.770;2023-05-07T01:11:57;23.67;;;18.53;;
21352;SDS011;10834;52.268;6.770;2023-05-07T01:14:44;20.60;;;17.97;;
21352;SDS011;10834;52.268;6.770;2023-05-07T01:17:33;20.30;;;18.03;;
21352;SDS011;10834;52.268;6.770;2023-05-07T01:20:23;21.17;;;18.97;;
21352;SDS011;10834;52.268;6.770;2023-05-07T01:23:10;22.27;;;17.53;;
21352;SDS011;10834;52.268;6.770;2023-05-07T01:25:56;18.43;;;16.53;;
21352;SDS011;10834;52.268;6.770;2023-05-07T01:28:42;20.50;;;18.27;;
21352;SDS011;10834;52.268;6.770;2023-05-07T01:31:28;19.77;;;17.47;;
21352;SDS011;10834;52.268;6.770;2023-05-07T01:34:15;21.37;;;17.97;;
21352;SDS011;10834;52.268;6.770;2023-05-07T01:37:03;21.97;;;17.80;;
21352;SDS011;10834;52.268;6.770;2023-05-07T01:39:49;18.37;;;16.47;;
21352;SDS011;10834;52.268;6.770;2023-05-07T01:42:35;20.83;;;16.77;;
21352;SDS011;10834;52.268;6.770;2023-05-07T01:45:22;18.73;;;16.23;;
21352;SDS011;10834;52.268;6.770;2023-05-07T01:48:09;20.47;;;16.60;;
21352;SDS011;10834;52.268;6.770;2023-05-07T01:50:56;21.93;;;16.40;;
21352;SDS011;10834;52.268;6.770;2023-05-07T01:53:42;20.20;;;16.53;;
21352;SDS011;10834;52.268;6.770;2023-05-07T01:56:29;20.20;;;15.93;;
21352;SDS011;10834;52.268;6.770;2023-05-07T01:59:15;23.43;;;16.10;;
21352;SDS011;10834;52.268;6.770;2023-05-07T02:02:01;21.07;;;15.77;;
21352;SDS011;10834;52.268;6.770;2023-05-07T02:04:47;19.53;;;16.47;;
21352;SDS011;10834;52.268;6.770;2023-05-07T02:07:33;20.90;;;16.10;;
21352;SDS011;10834;52.268;6.770;2023-05-07T02:10:19;19.73;;;14.93;;
21352;SDS011;10834;52.268;6.770;2023-05-07T02:13:06;19.33;;;16.13;;
21352;SDS011;10834;52.268;6.770;2023-05-07T02:15:52;23.53;;;16.53;;
21352;SDS011;10834;52.268;6.770;2023-05-07T02:18:39;19.20;;;16.40;;
21352;SDS011;10834;52.268;6.770;2023-05-07T02:21:25;20.83;;;16.63;;
21352;SDS011;10834;52.268;6.770;2023-05-07T02:24:11;22.70;;;17.57;;
21352;SDS011;10834;52.268;6.770;2023-05-07T02:26:57;23.17;;;18.57;;
21352;SDS011;10834;52.268;6.770;2023-05-07T02:29:43;22.50;;;17.90;;
21352;SDS011;10834;52.268;6.770;2023-05-07T02:32:29;22.90;;;17.33;;
21352;SDS011;10834;52.268;6.770;2023-05-07T02:35:15;23.87;;;17.30;;
21352;SDS011;10834;52.268;6.770;2023-05-07T02:38:01;23.17;;;18.57;;
21352;SDS011;10834;52.268;6.770;2023-05-07T02:40:48;24.63;;;18.23;;
21352;SDS011;10834;52.268;6.770;2023-05-07T02:43:34;22.77;;;18.40;;
21352;SDS011;10834;52.268;6.770;2023-05-07T02:46:20;24.43;;;18.37;;
21352;SDS011;10834;52.268;6.770;2023-05-07T02:49:06;24.70;;;19.03;;
21352;SDS011;10834;52.268;6.770;2023-05-07T02:51:52;29.17;;;20.30;;
21352;SDS011;10834;52.268;6.770;2023-05-07T02:54:38;24.67;;;19.03;;
21352;SDS011;10834;52.268;6.770;2023-05-07T02:57:24;29.10;;;20.07;;
21352;SDS011;10834;52.268;6.770;2023-05-07T03:00:14;25.23;;;18.87;;
21352;SDS011;10834;52.268;6.770;2023-05-07T03:03:01;31.57;;;20.47;;
21352;SDS011;10834;52.268;6.770;2023-05-07T03:05:47;29.53;;;20.33;;
21352;SDS011;10834;52.268;6.770;2023-05-07T03:08:33;25.40;;;19.70;;
21352;SDS011;10834;52.268;6.770;2023-05-07T03:11:19;26.77;;;21.17;;
21352;SDS011;10834;52.268;6.770;2023-05-07T03:14:06;33.13;;;21.03;;
21352;SDS011;10834;52.268;6.770;2023-05-07T03:16:52;30.60;;;21.80;;
21352;SDS011;10834;52.268;6.770;2023-05-07T03:19:38;28.33;;;21.33;;
21352;SDS011;10834;52.268;6.770;2023-05-07T03:22:24;29.93;;;22.10;;
21352;SDS011;10834;52.268;6.770;2023-05-07T03:25:10;28.73;;;19.97;;
21352;SDS011;10834;52.268;6.770;2023-05-07T03:27:56;29.67;;;20.60;;
21352;SDS011;10834;52.268;6.770;2023-05-07T03:30:42;28.67;;;22.87;;
21352;SDS011;10834;52.268;6.770;2023-05-07T03:33:29;30.97;;;22.30;;
21352;SDS011;10834;52.268;6.770;2023-05-07T03:36:15;26.00;;;21.03;;
21352;SDS011;10834;52.268;6.770;2023-05-07T03:39:01;27.93;;;20.10;;
21352;SDS011;10834;52.268;6.770;2023-05-07T03:41:47;26.90;;;21.87;;
21352;SDS011;10834;52.268;6.770;2023-05-07T03:44:33;28.47;;;22.13;;
21352;SDS011;10834;52.268;6.770;2023-05-07T03:47:19;30.63;;;21.90;;
21352;SDS011;10834;52.268;6.770;2023-05-07T03:50:05;30.90;;;21.50;;
21352;SDS011;10834;52.268;6.770;2023-05-07T03:52:51;29.30;;;22.20;;
21352;SDS011;10834;52.268;6.770;2023-05-07T03:55:37;28.33;;;21.23;;
21352;SDS011;10834;52.268;6.770;2023-05-07T03:58:24;31.07;;;22.43;;
21352;SDS011;10834;52.268;6.770;2023-05-07T04:01:10;32.03;;;21.93;;
21352;SDS011;10834;52.268;6.770;2023-05-07T04:03:56;26.27;;;21.60;;
21352;SDS011;10834;52.268;6.770;2023-05-07T04:06:42;30.43;;;22.03;;
21352;SDS011;10834;52.268;6.770;2023-05-07T04:09:28;32.90;;;22.57;;
21352;SDS011;10834;52.268;6.770;2023-05-07T04:12:14;28.87;;;22.23;;
21352;SDS011;10834;52.268;6.770;2023-05-07T04:15:00;33.30;;;22.60;;
21352;SDS011;10834;52.268;6.770;2023-05-07T04:17:46;27.87;;;21.80;;
21352;SDS011;10834;52.268;6.770;2023-05-07T04:20:34;29.17;;;20.57;;
21352;SDS011;10834;52.268;6.770;2023-05-07T04:23:22;30.07;;;22.67;;
21352;SDS011;10834;52.268;6.770;2023-05-07T04:26:08;29.33;;;21.67;;
21352;SDS011;10834;52.268;6.770;2023-05-07T04:28:54;28.87;;;21.70;;
21352;SDS011;10834;52.268;6.770;2023-05-07T04:31:40;31.70;;;22.80;;
21352;SDS011;10834;52.268;6.770;2023-05-07T04:34:29;31.70;;;22.57;;
21352;SDS011;10834;52.268;6.770;2023-05-07T04:37:15;29.07;;;22.27;;
21352;SDS011;10834;52.268;6.770;2023-05-07T04:40:01;30.77;;;21.90;;
21352;SDS011;10834;52.268;6.770;2023-05-07T04:42:48;32.37;;;21.47;;
21352;SDS011;10834;52.268;6.770;2023-05-07T04:45:35;33.40;;;22.53;;
21352;SDS011;10834;52.268;6.770;2023-05-07T04:48:21;33.93;;;23.00;;
21352;SDS011;10834;52.268;6.770;2023-05-07T04:51:07;30.50;;;22.17;;
21352;SDS011;10834;52.268;6.770;2023-05-07T04:53:53;35.47;;;23.47;;
21352;SDS011;10834;52.268;6.770;2023-05-07T04:56:39;32.73;;;22.70;;
21352;SDS011;10834;52.268;6.770;2023-05-07T04:59:25;33.50;;;22.50;;
21352;SDS011;10834;52.268;6.770;2023-05-07T05:02:12;31.73;;;23.33;;
21352;SDS011;10834;52.268;6.770;2023-05-07T05:04:58;29.13;;;21.97;;
21352;SDS011;10834;52.268;6.770;2023-05-07T05:07:44;31.33;;;21.83;;
21352;SDS011;10834;52.268;6.770;2023-05-07T05:10:30;37.13;;;24.47;;
21352;SDS011;10834;52.268;6.770;2023-05-07T05:13:16;35.00;;;23.33;;
21352;SDS011;10834;52.268;6.770;2023-05-07T05:16:03;30.47;;;21.70;;
21352;SDS011;10834;52.268;6.770;2023-05-07T05:18:49;32.90;;;22.87;;
21352;SDS011;10834;52.268;6.770;2023-05-07T05:21:37;32.37;;;23.67;;
21352;SDS011;10834;52.268;6.770;2023-05-07T05:24:23;34.30;;;23.60;;
21352;SDS011;10834;52.268;6.770;2023-05-07T05:27:09;34.87;;;23.90;;
21352;SDS011;10834;52.268;6.770;2023-05-07T05:29:56;34.80;;;23.53;;
21352;SDS011;10834;52.268;6.770;2023-05-07T05:32:42;32.23;;;24.17;;
21352;SDS011;10834;52.268;6.770;2023-05-07T05:35:29;31.87;;;22.93;;
21352;SDS011;10834;52.268;6.770;2023-05-07T05:38:15;35.90;;;25.20;;
21352;SDS011;10834;52.268;6.770;2023-05-07T05:41:01;35.30;;;24.10;;
21352;SDS011;10834;52.268;6.770;2023-05-07T05:43:48;31.47;;;22.57;;
21352;SDS011;10834;52.268;6.770;2023-05-07T05:46:34;33.03;;;22.83;;
21352;SDS011;10834;52.268;6.770;2023-05-07T05:49:20;32.27;;;24.50;;
21352;SDS011;10834;52.268;6.770;2023-05-07T05:52:07;32.07;;;23.57;;
21352;SDS011;10834;52.268;6.770;2023-05-07T05:54:53;33.33;;;22.60;;
21352;SDS011;10834;52.268;6.770;2023-05-07T05:57:39;32.07;;;23.70;;
21352;SDS011;10834;52.268;6.770;2023-05-07T06:00:25;35.20;;;23.63;;
21352;SDS011;10834;52.268;6.770;2023-05-07T06:03:11;30.97;;;21.87;;
21352;SDS011;10834;52.268;6.770;2023-05-07T06:05:57;31.60;;;22.93;;
21352;SDS011;10834;52.268;6.770;2023-05-07T06:08:45;29.97;;;23.67;;
21352;SDS011;10834;52.268;6.770;2023-05-07T06:11:31;34.53;;;24.67;;
21352;SDS011;10834;52.268;6.770;2023-05-07T06:14:17;32.03;;;22.87;;
21352;SDS011;10834;52.268;6.770;2023-05-07T06:17:03;31.03;;;23.40;;
21352;SDS011;10834;52.268;6.770;2023-05-07T06:19:50;30.03;;;24.40;;
21352;SDS011;10834;52.268;6.770;2023-05-07T06:22:37;39.67;;;25.33;;
21352;SDS011;10834;52.268;6.770;2023-05-07T06:25:23;31.90;;;22.10;;
21352;SDS011;10834;52.268;6.770;2023-05-07T06:28:09;32.23;;;24.73;;
21352;SDS011;10834;52.268;6.770;2023-05-07T06:31:10;34.67;;;23.80;;
21352;SDS011;10834;52.268;6.770;2023-05-07T06:33:56;27.73;;;21.57;;
21352;SDS011;10834;52.268;6.770;2023-05-07T06:36:44;34.77;;;24.67;;
21352;SDS011;10834;52.268;6.770;2023-05-07T06:39:30;33.17;;;23.33;;
21352;SDS011;10834;52.268;6.770;2023-05-07T06:42:16;32.00;;;24.83;;
21352;SDS011;10834;52.268;6.770;2023-05-07T06:45:02;36.87;;;25.33;;
21352;SDS011;10834;52.268;6.770;2023-05-07T06:47:49;32.33;;;23.00;;
21352;SDS011;10834;52.268;6.770;2023-05-07T06:50:35;36.07;;;24.23;;
21352;SDS011;10834;52.268;6.770;2023-05-07T06:53:21;30.17;;;22.93;;
21352;SDS011;10834;52.268;6.770;2023-05-07T06:56:07;31.00;;;22.27;;
21352;SDS011;10834;52.268;6.770;2023-05-07T06:58:53;35.57;;;24.47;;
21352;SDS011;10834;52.268;6.770;2023-05-07T07:01:39;31.83;;;22.27;;
21352;SDS011;10834;52.268;6.770;2023-05-07T07:04:25;36.60;;;22.57;;
21352;SDS011;10834;52.268;6.770;2023-05-07T07:07:11;33.33;;;22.90;;
21352;SDS011;10834;52.268;6.770;2023-05-07T07:09:57;30.03;;;23.33;;
21352;SDS011;10834;52.268;6.770;2023-05-07T07:12:44;31.63;;;24.20;;
21352;SDS011;10834;52.268;6.770;2023-05-07T07:15:30;30.90;;;23.03;;
21352;SDS011;10834;52.268;6.770;2023-05-07T07:18:16;30.83;;;23.00;;
21352;SDS011;10834;52.268;6.770;2023-05-07T07:21:02;30.07;;;22.57;;
21352;SDS011;10834;52.268;6.770;2023-05-07T07:23:48;31.33;;;22.97;;
21352;SDS011;10834;52.268;6.770;2023-05-07T07:26:34;30.50;;;22.93;;
21352;SDS011;10834;52.268;6.770;2023-05-07T07:29:20;29.40;;;22.77;;
21352;SDS011;10834;52.268;6.770;2023-05-07T07:32:06;31.33;;;22.27;;
21352;SDS011;10834;52.268;6.770;2023-05-07T07:34:52;30.67;;;22.53;;
21352;SDS011;10834;52.268;6.770;2023-05-07T07:37:38;27.53;;;21.97;;
21352;SDS011;10834;52.268;6.770;2023-05-07T07:40:24;30.83;;;22.30;;
21352;SDS011;10834;52.268;6.770;2023-05-07T07:43:11;27.93;;;21.30;;
21352;SDS011;10834;52.268;6.770;2023-05-07T07:45:57;25.83;;;19.93;;
21352;SDS011;10834;52.268;6.770;2023-05-07T07:48:43;28.80;;;22.37;;
21352;SDS011;10834;52.268;6.770;2023-05-07T07:51:29;28.03;;;21.37;;
21352;SDS011;10834;52.268;6.770;2023-05-07T07:54:16;32.30;;;22.00;;
21352;SDS011;10834;52.268;6.770;2023-05-07T07:57:02;25.50;;;20.67;;
21352;SDS011;10834;52.268;6.770;2023-05-07T07:59:48;29.00;;;21.37;;
21352;SDS011;10834;52.268;6.770;2023-05-07T08:02:35;27.97;;;21.17;;
21352;SDS011;10834;52.268;6.770;2023-05-07T08:05:21;29.70;;;22.88;;
21352;SDS011;10834;52.268;6.770;2023-05-07T08:08:07;27.40;;;20.50;;
21352;SDS011;10834;52.268;6.770;2023-05-07T08:10:54;27.03;;;19.83;;
21352;SDS011;10834;52.268;6.770;2023-05-07T08:13:41;26.50;;;21.60;;
21352;SDS011;10834;52.268;6.770;2023-05-07T08:16:27;25.88;;;20.33;;
21352;SDS011;10834;52.268;6.770;2023-05-07T08:19:13;29.00;;;20.20;;
21352;SDS011;10834;52.268;6.770;2023-05-07T08:21:59;29.67;;;23.37;;
21352;SDS011;10834;52.268;6.770;2023-05-07T08:24:46;28.43;;;21.00;;
21352;SDS011;10834;52.268;6.770;2023-05-07T08:27:32;28.10;;;21.30;;
21352;SDS011;10834;52.268;6.770;2023-05-07T08:30:18;26.57;;;21.10;;
21352;SDS011;10834;52.268;6.770;2023-05-07T08:33:04;27.52;;;20.65;;
21352;SDS011;10834;52.268;6.770;2023-05-07T08:35:50;25.60;;;20.73;;
21352;SDS011;10834;52.268;6.770;2023-05-07T08:38:36;26.25;;;20.77;;
21352;SDS011;10834;52.268;6.770;2023-05-07T08:41:22;26.35;;;20.48;;
21352;SDS011;10834;52.268;6.770;2023-05-07T08:44:11;27.25;;;20.85;;
21352;SDS011;10834;52.268;6.770;2023-05-07T08:46:59;25.38;;;19.88;;
21352;SDS011;10834;52.268;6.770;2023-05-07T08:49:46;23.25;;;19.42;;
21352;SDS011;10834;52.268;6.770;2023-05-07T08:52:33;25.30;;;19.35;;
21352;SDS011;10834;52.268;6.770;2023-05-07T08:55:20;24.55;;;20.15;;
21352;SDS011;10834;52.268;6.770;2023-05-07T08:58:07;24.23;;;18.95;;
21352;SDS011;10834;52.268;6.770;2023-05-07T09:00:53;24.75;;;18.45;;
21352;SDS011;10834;52.268;6.770;2023-05-07T09:03:40;22.15;;;18.20;;
21352;SDS011;10834;52.268;6.770;2023-05-07T09:06:27;20.88;;;17.42;;
21352;SDS011;10834;52.268;6.770;2023-05-07T09:09:16;21.83;;;18.35;;
21352;SDS011;10834;52.268;6.770;2023-05-07T09:12:06;23.02;;;18.08;;
21352;SDS011;10834;52.268;6.770;2023-05-07T09:14:52;22.30;;;18.35;;
21352;SDS011;10834;52.268;6.770;2023-05-07T09:17:38;24.23;;;17.95;;
21352;SDS011;10834;52.268;6.770;2023-05-07T09:20:24;20.65;;;17.50;;
21352;SDS011;10834;52.268;6.770;2023-05-07T09:23:10;23.58;;;16.83;;
21352;SDS011;10834;52.268;6.770;2023-05-07T09:25:59;20.90;;;16.33;;
21352;SDS011;10834;52.268;6.770;2023-05-07T09:28:45;20.35;;;17.50;;
21352;SDS011;10834;52.268;6.770;2023-05-07T09:31:32;20.98;;;16.60;;
21352;SDS011;10834;52.268;6.770;2023-05-07T09:34:21;21.77;;;17.15;;
21352;SDS011;10834;52.268;6.770;2023-05-07T09:37:07;19.83;;;15.18;;
21352;SDS011;10834;52.268;6.770;2023-05-07T09:39:53;20.58;;;16.48;;
21352;SDS011;10834;52.268;6.770;2023-05-07T09:42:40;18.00;;;16.10;;
21352;SDS011;10834;52.268;6.770;2023-05-07T09:45:26;21.52;;;17.17;;
21352;SDS011;10834;52.268;6.770;2023-05-07T09:48:13;20.65;;;16.33;;
21352;SDS011;10834;52.268;6.770;2023-05-07T09:51:03;18.08;;;16.20;;
21352;SDS011;10834;52.268;6.770;2023-05-07T09:53:58;17.52;;;15.23;;
21352;SDS011;10834;52.268;6.770;2023-05-07T09:56:51;17.80;;;15.27;;
21352;SDS011;10834;52.268;6.770;2023-05-07T09:59:38;16.98;;;15.20;;
21352;SDS011;10834;52.268;6.770;2023-05-07T10:02:26;18.92;;;16.00;;
21352;SDS011;10834;52.268;6.770;2023-05-07T10:05:15;16.13;;;14.52;;
21352;SDS011;10834;52.268;6.770;2023-05-07T10:08:02;18.23;;;15.50;;
21352;SDS011;10834;52.268;6.770;2023-05-07T10:10:49;17.45;;;14.10;;
21352;SDS011;10834;52.268;6.770;2023-05-07T10:13:35;18.70;;;16.42;;
21352;SDS011;10834;52.268;6.770;2023-05-07T10:16:23;16.65;;;14.90;;
21352;SDS011;10834;52.268;6.770;2023-05-07T10:19:11;17.30;;;14.90;;
21352;SDS011;10834;52.268;6.770;2023-05-07T10:22:03;16.67;;;14.73;;
21352;SDS011;10834;52.268;6.770;2023-05-07T10:24:51;18.80;;;15.52;;
21352;SDS011;10834;52.268;6.770;2023-05-07T10:27:40;17.70;;;15.25;;
21352;SDS011;10834;52.268;6.770;2023-05-07T10:33:26;17.35;;;15.43;;
21352;SDS011;10834;52.268;6.770;2023-05-07T10:36:14;18.35;;;14.80;;
21352;SDS011;10834;52.268;6.770;2023-05-07T10:39:00;14.75;;;13.18;;
21352;SDS011;10834;52.268;6.770;2023-05-07T10:41:46;16.55;;;14.90;;
21352;SDS011;10834;52.268;6.770;2023-05-07T10:44:33;16.92;;;15.05;;
21352;SDS011;10834;52.268;6.770;2023-05-07T10:47:19;15.13;;;13.52;;
21352;SDS011;10834;52.268;6.770;2023-05-07T11:02:06;19.65;;;14.65;;
21352;SDS011;10834;52.268;6.770;2023-05-07T11:08:06;14.90;;;13.40;;
21352;SDS011;10834;52.268;6.770;2023-05-07T11:10:56;17.23;;;15.38;;
21352;SDS011;10834;52.268;6.770;2023-05-07T11:13:44;15.93;;;14.23;;
21352;SDS011;10834;52.268;6.770;2023-05-07T11:16:31;15.68;;;14.10;;
21352;SDS011;10834;52.268;6.770;2023-05-07T11:22:40;15.30;;;13.20;;
21352;SDS011;10834;52.268;6.770;2023-05-07T11:25:26;16.38;;;14.60;;
21352;SDS011;10834;52.268;6.770;2023-05-07T11:28:12;15.45;;;13.85;;
21352;SDS011;10834;52.268;6.770;2023-05-07T11:30:58;15.60;;;13.90;;
21352;SDS011;10834;52.268;6.770;2023-05-07T11:33:45;16.67;;;14.90;;
21352;SDS011;10834;52.268;6.770;2023-05-07T11:36:32;16.52;;;14.75;;
21352;SDS011;10834;52.268;6.770;2023-05-07T11:42:25;16.23;;;14.50;;
21352;SDS011;10834;52.268;6.770;2023-05-07T11:45:11;17.25;;;15.45;;
21352;SDS011;10834;52.268;6.770;2023-05-07T11:48:08;15.23;;;13.68;;
21352;SDS011;10834;52.268;6.770;2023-05-07T11:50:59;14.88;;;13.40;;
21352;SDS011;10834;52.268;6.770;2023-05-07T11:53:47;16.27;;;13.50;;
21352;SDS011;10834;52.268;6.770;2023-05-07T11:56:34;14.93;;;13.43;;
21352;SDS011;10834;52.268;6.770;2023-05-07T11:59:21;15.38;;;13.77;;
21352;SDS011;10834;52.268;6.770;2023-05-07T12:02:07;15.85;;;13.45;;
21352;SDS011;10834;52.268;6.770;2023-05-07T12:04:54;15.95;;;13.52;;
21352;SDS011;10834;52.268;6.770;2023-05-07T12:07:41;15.77;;;14.07;;
21352;SDS011;10834;52.268;6.770;2023-05-07T12:10:27;17.67;;;14.77;;
21352;SDS011;10834;52.268;6.770;2023-05-07T12:13:16;15.07;;;13.45;;
21352;SDS011;10834;52.268;6.770;2023-05-07T12:16:03;15.55;;;13.32;;
21352;SDS011;10834;52.268;6.770;2023-05-07T12:18:50;18.20;;;13.05;;
21352;SDS011;10834;52.268;6.770;2023-05-07T12:21:38;15.65;;;14.02;;
21352;SDS011;10834;52.268;6.770;2023-05-07T12:24:24;15.85;;;13.45;;
21352;SDS011;10834;52.268;6.770;2023-05-07T12:27:10;18.15;;;14.75;;
21352;SDS011;10834;52.268;6.770;2023-05-07T12:29:57;14.02;;;12.60;;
21352;SDS011;10834;52.268;6.770;2023-05-07T12:32:44;10.40;;;9.20;;
21352;SDS011;10834;52.268;6.770;2023-05-07T12:35:31;8.88;;;7.97;;
21352;SDS011;10834;52.268;6.770;2023-05-07T12:38:21;10.77;;;9.77;;
21352;SDS011;10834;52.268;6.770;2023-05-07T12:41:08;9.77;;;8.88;;
21352;SDS011;10834;52.268;6.770;2023-05-07T12:43:56;12.18;;;9.63;;
21352;SDS011;10834;52.268;6.770;2023-05-07T12:46:43;10.38;;;9.25;;
21352;SDS011;10834;52.268;6.770;2023-05-07T12:49:29;11.07;;;8.88;;
21352;SDS011;10834;52.268;6.770;2023-05-07T12:52:15;11.60;;;9.70;;
21352;SDS011;10834;52.268;6.770;2023-05-07T12:55:05;12.48;;;10.82;;
21352;SDS011;10834;52.268;6.770;2023-05-07T12:57:52;11.82;;;9.27;;
21352;SDS011;10834;52.268;6.770;2023-05-07T13:00:39;10.98;;;9.50;;
21352;SDS011;10834;52.268;6.770;2023-05-07T13:03:26;10.55;;;9.48;;
21352;SDS011;10834;52.268;6.770;2023-05-07T13:06:17;11.60;;;10.40;;
21352;SDS011;10834;52.268;6.770;2023-05-07T13:09:03;11.35;;;10.18;;
21352;SDS011;10834;52.268;6.770;2023-05-07T13:11:50;14.10;;;10.93;;
21352;SDS011;10834;52.268;6.770;2023-05-07T13:14:36;13.77;;;11.20;;
21352;SDS011;10834;52.268;6.770;2023-05-07T13:17:22;11.43;;;10.07;;
21352;SDS011;10834;52.268;6.770;2023-05-07T13:20:09;13.85;;;10.93;;
21352;SDS011;10834;52.268;6.770;2023-05-07T13:22:55;12.27;;;10.02;;
21352;SDS011;10834;52.268;6.770;2023-05-07T13:25:41;10.35;;;9.32;;
21352;SDS011;10834;52.268;6.770;2023-05-07T13:28:28;10.13;;;9.10;;
21352;SDS011;10834;52.268;6.770;2023-05-07T13:31:14;9.30;;;8.32;;
21352;SDS011;10834;52.268;6.770;2023-05-07T13:34:00;10.27;;;9.15;;
21352;SDS011;10834;52.268;6.770;2023-05-07T13:36:46;9.55;;;8.55;;
21352;SDS011;10834;52.268;6.770;2023-05-07T13:39:32;8.82;;;7.93;;
21352;SDS011;10834;52.268;6.770;2023-05-07T13:42:18;8.75;;;6.88;;
21352;SDS011;10834;52.268;6.770;2023-05-07T13:45:04;11.85;;;9.10;;
21352;SDS011;10834;52.268;6.770;2023-05-07T13:47:51;10.82;;;9.73;;
21352;SDS011;10834;52.268;6.770;2023-05-07T13:50:37;25.85;;;19.35;;
21352;SDS011;10834;52.268;6.770;2023-05-07T13:53:23;15.32;;;12.65;;
21352;SDS011;10834;52.268;6.770;2023-05-07T13:56:09;10.77;;;8.82;;
21352;SDS011;10834;52.268;6.770;2023-05-07T13:58:56;8.93;;;7.93;;
21352;SDS011;10834;52.268;6.770;2023-05-07T14:01:42;8.82;;;7.40;;
21352;SDS011;10834;52.268;6.770;2023-05-07T14:04:28;9.20;;;6.85;;
21352;SDS011;10834;52.268;6.770;2023-05-07T14:07:15;9.77;;;7.05;;
21352;SDS011;10834;52.268;6.770;2023-05-07T14:10:01;7.28;;;6.47;;
21352;SDS011;10834;52.268;6.770;2023-05-07T14:12:48;8.90;;;6.82;;
21352;SDS011;10834;52.268;6.770;2023-05-07T14:15:34;7.25;;;6.25;;
21352;SDS011;10834;52.268;6.770;2023-05-07T14:18:20;6.32;;;5.72;;
21352;SDS011;10834;52.268;6.770;2023-05-07T14:21:06;6.25;;;5.65;;
21352;SDS011;10834;52.268;6.770;2023-05-07T14:23:53;6.10;;;5.50;;
21352;SDS011;10834;52.268;6.770;2023-05-07T14:26:39;9.18;;;8.20;;
21352;SDS011;10834;52.268;6.770;2023-05-07T14:29:25;9.52;;;8.60;;
21352;SDS011;10834;52.268;6.770;2023-05-07T14:32:11;11.90;;;9.13;;
21352;SDS011;10834;52.268;6.770;2023-05-07T14:34:57;9.40;;;8.50;;
21352;SDS011;10834;52.268;6.770;2023-05-07T14:37:43;9.88;;;8.88;;
21352;SDS011;10834;52.268;6.770;2023-05-07T14:40:29;12.07;;;9.10;;
21352;SDS011;10834;52.268;6.770;2023-05-07T14:43:15;12.32;;;9.52;;
21352;SDS011;10834;52.268;6.770;2023-05-07T14:46:01;14.52;;;9.98;;
21352;SDS011;10834;52.268;6.770;2023-05-07T14:48:47;10.77;;;9.25;;
21352;SDS011;10834;52.268;6.770;2023-05-07T14:51:33;11.65;;;10.18;;
21352;SDS011;10834;52.268;6.770;2023-05-07T14:54:19;11.73;;;9.80;;
21352;SDS011;10834;52.268;6.770;2023-05-07T14:57:06;12.90;;;9.55;;
21352;SDS011;10834;52.268;6.770;2023-05-07T14:59:55;11.00;;;9.90;;
21352;SDS011;10834;52.268;6.770;2023-05-07T15:02:41;10.57;;;8.60;;
21352;SDS011;10834;52.268;6.770;2023-05-07T15:05:27;9.38;;;8.25;;
21352;SDS011;10834;52.268;6.770;2023-05-07T15:08:13;11.02;;;9.93;;
21352;SDS011;10834;52.268;6.770;2023-05-07T15:10:59;9.60;;;8.63;;
21352;SDS011;10834;52.268;6.770;2023-05-07T15:13:45;8.93;;;8.02;;
21352;SDS011;10834;52.268;6.770;2023-05-07T15:16:31;9.40;;;8.50;;
21352;SDS011;10834;52.268;6.770;2023-05-07T15:19:18;9.70;;;8.73;;
21352;SDS011;10834;52.268;6.770;2023-05-07T15:22:04;9.52;;;8.52;;
21352;SDS011;10834;52.268;6.770;2023-05-07T15:24:51;9.43;;;8.52;;
21352;SDS011;10834;52.268;6.770;2023-05-07T15:27:37;9.27;;;8.02;;
21352;SDS011;10834;52.268;6.770;2023-05-07T15:30:23;8.70;;;7.50;;
21352;SDS011;10834;52.268;6.770;2023-05-07T15:33:09;8.68;;;7.88;;
21352;SDS011;10834;52.268;6.770;2023-05-07T15:35:55;8.40;;;7.53;;
21352;SDS011;10834;52.268;6.770;2023-05-07T15:38:44;8.88;;;7.97;;
21352;SDS011;10834;52.268;6.770;2023-05-07T15:41:30;10.38;;;8.02;;
21352;SDS011;10834;52.268;6.770;2023-05-07T15:44:16;10.75;;;8.10;;
21352;SDS011;10834;52.268;6.770;2023-05-07T15:47:02;10.40;;;7.45;;
21352;SDS011;10834;52.268;6.770;2023-05-07T15:49:48;7.85;;;7.13;;
21352;SDS011;10834;52.268;6.770;2023-05-07T15:52:34;8.63;;;7.50;;
21352;SDS011;10834;52.268;6.770;2023-05-07T15:55:21;8.30;;;7.40;;
21352;SDS011;10834;52.268;6.770;2023-05-07T15:58:07;10.00;;;7.15;;
21352;SDS011;10834;52.268;6.770;2023-05-07T16:00:53;9.45;;;7.40;;
21352;SDS011;10834;52.268;6.770;2023-05-07T16:03:40;9.90;;;8.07;;
21352;SDS011;10834;52.268;6.770;2023-05-07T16:06:26;10.43;;;9.00;;
21352;SDS011;10834;52.268;6.770;2023-05-07T16:09:13;11.68;;;8.18;;
21352;SDS011;10834;52.268;6.770;2023-05-07T16:11:59;9.85;;;8.77;;
21352;SDS011;10834;52.268;6.770;2023-05-07T16:14:45;13.48;;;9.00;;
21352;SDS011;10834;52.268;6.770;2023-05-07T16:17:32;10.40;;;8.70;;
21352;SDS011;10834;52.268;6.770;2023-05-07T16:20:18;8.30;;;7.43;;
21352;SDS011;10834;52.268;6.770;2023-05-07T16:23:06;8.65;;;7.60;;
21352;SDS011;10834;52.268;6.770;2023-05-07T16:25:52;8.73;;;7.80;;
21352;SDS011;10834;52.268;6.770;2023-05-07T16:28:38;9.45;;;8.55;;
21352;SDS011;10834;52.268;6.770;2023-05-07T16:31:24;8.02;;;7.32;;
21352;SDS011;10834;52.268;6.770;2023-05-07T16:34:10;9.18;;;8.27;;
21352;SDS011;10834;52.268;6.770;2023-05-07T16:36:56;8.45;;;7.65;;
21352;SDS011;10834;52.268;6.770;2023-05-07T16:39:42;9.68;;;7.72;;
21352;SDS011;10834;52.268;6.770;2023-05-07T16:42:29;9.45;;;8.55;;
21352;SDS011;10834;52.268;6.770;2023-05-07T16:45:15;8.73;;;7.93;;